Time;durP1;ratioP1;P1;durP2;ratioP2;P2;SDS_P1;SDS_P2;PMS_P1;PMS_P2;Temp;Humidity;BMP_temperature;BMP_pressure;BME280_temperature;BME280_humidity;BME280_pressure;Samples;Min_cycle;Max_cycle;Signal;HPM_P1;HPM_P2
2022/09/21 00:03:42;;;;;;;;;;;;;;;9.09;100.00;101585.00;8324815;28;19917;-49
2022/09/21 00:07:43;;;;;;;;;;;;;;;9.11;100.00;101585.72;8324426;28;19921;-51
2022/09/21 00:11:43;;;;;;;;;;;;;;;9.15;100.00;101584.56;8324769;28;19928;-49
2022/09/21 00:15:44;;;;;;;;;;;;;;;9.04;100.00;101577.22;8320644;28;20000;-50
2022/09/21 00:19:44;;;;;;;;;;;;;;;9.02;100.00;101578.25;8323733;28;19975;-49
2022/09/21 00:23:45;;;;;;;;;;;;;;;9.22;100.00;101575.06;8324532;28;19917;-49
2022/09/21 00:27:50;;;;;;;;;;;;;;;9.22;100.00;101585.88;8324211;28;19925;-52
2022/09/21 00:32:10;;;;;;;;;;;;;;;8.77;100.00;101581.78;8323913;28;19929;-49
2022/09/21 00:36:11;;;;;;;;;;;;;;;8.91;100.00;101580.84;8323727;28;19917;-49
2022/09/21 00:40:12;;;;;;;;;;;;;;;8.98;100.00;101587.53;8330781;28;20385;-51
2022/09/21 00:44:22;;;;;;;;;;;;;;;9.20;100.00;101595.91;8330849;28;20355;-50
2022/09/21 00:48:22;;;;;;;;;;;;;;;9.38;100.00;101583.81;8328567;28;19957;-48
2022/09/21 00:52:24;;;;;;;;;;;;;;;9.05;100.00;101596.94;8326900;28;19928;-49
2022/09/21 00:56:24;;;;;;;;;;;;;;;8.73;100.00;101592.88;8320695;28;20278;-49
2022/09/21 01:00:25;;;;;;;;;;;;;;;8.83;100.00;101592.16;8329199;28;19917;-49
2022/09/21 01:04:27;;;;;;;;;;;;;;;8.59;100.00;101584.81;8291322;28;21288;-49
2022/09/21 01:08:27;;;;;;;;;;;;;;;8.59;100.00;101585.69;8296567;28;19921;-50
2022/09/21 01:12:37;;;;;;;;;;;;;;;8.51;100.00;101587.19;8296859;28;19932;-49
2022/09/21 01:16:40;;;;;;;;;;;;;;;8.34;100.00;101593.69;8327071;28;19974;-50
2022/09/21 01:21:00;;;;;;;;;;;;;;;8.23;100.00;101592.66;8328781;28;19964;-49
2022/09/21 01:25:18;;;;;;;;;;;;;;;8.38;100.00;101591.66;8325276;28;19925;-49
2022/09/21 01:29:31;;;;;;;;;;;;;;;8.36;100.00;101583.69;8322662;28;19921;-49
2022/09/21 01:33:35;;;;;;;;;;;;;;;8.37;100.00;101593.47;8322537;28;19925;-49
2022/09/21 01:37:37;;;;;;;;;;;;;;;8.30;100.00;101594.84;8328482;28;19924;-53
2022/09/21 01:41:39;;;;;;;;;;;;;;;8.31;100.00;101595.69;8328262;28;19921;-50
2022/09/21 01:45:43;;;;;;;;;;;;;;;8.53;100.00;101590.63;8325046;28;19921;-52
2022/09/21 01:49:46;;;;;;;;;;;;;;;8.70;100.00;101587.69;8325450;28;20004;-50
2022/09/21 01:53:50;;;;;;;;;;;;;;;8.69;100.00;101591.34;8328109;28;19917;-49
2022/09/21 01:58:10;;;;;;;;;;;;;;;8.40;100.00;101595.09;8327578;28;19921;-49
2022/09/21 02:02:16;;;;;;;;;;;;;;;7.91;100.00;101587.47;8327642;28;19921;-49
2022/09/21 02:06:17;;;;;;;;;;;;;;;8.28;100.00;101588.69;8327370;28;20393;-48
2022/09/21 02:10:21;;;;;;;;;;;;;;;7.87;100.00;101585.09;8327620;28;20286;-49
2022/09/21 02:14:23;;;;;;;;;;;;;;;7.72;100.00;101589.56;8327971;28;19921;-49
2022/09/21 02:18:39;;;;;;;;;;;;;;;7.82;100.00;101587.19;8326808;28;20432;-51
2022/09/21 02:22:47;;;;;;;;;;;;;;;7.82;100.00;101590.75;8323938;28;20275;-50
2022/09/21 02:26:53;;;;;;;;;;;;;;;7.92;100.00;101589.19;8327706;28;19917;-51
2022/09/21 02:31:12;;;;;;;;;;;;;;;7.75;100.00;101586.69;8326441;28;19922;-49
2022/09/21 02:35:20;;;;;;;;;;;;;;;7.64;100.00;101591.03;8326566;28;19921;-50
2022/09/21 02:39:25;;;;;;;;;;;;;;;7.72;100.00;101581.50;8327158;28;20000;-49
2022/09/21 02:43:30;;;;;;;;;;;;;;;7.76;100.00;101588.44;8325943;28;20402;-49
2022/09/21 02:47:35;;;;;;;;;;;;;;;7.72;100.00;101586.88;8325901;28;20046;-50
2022/09/21 02:51:40;;;;;;;;;;;;;;;7.69;100.00;101589.78;8325487;28;19952;-48
2022/09/21 02:55:43;;;;;;;;;;;;;;;7.69;100.00;101581.69;8326097;28;20024;-50
2022/09/21 02:59:44;;;;;;;;;;;;;;;7.68;100.00;101589.88;8325406;28;19974;-50
2022/09/21 03:03:44;;;;;;;;;;;;;;;7.63;100.00;101576.69;8325956;28;19917;-47
2022/09/21 03:07:44;;;;;;;;;;;;;;;7.60;100.00;101587.66;8325865;28;19917;-47
2022/09/21 03:11:45;;;;;;;;;;;;;;;7.58;100.00;101578.84;8325102;28;19972;-49
2022/09/21 03:15:46;;;;;;;;;;;;;;;7.48;100.00;101583.03;8323930;28;19967;-48
2022/09/21 03:19:46;;;;;;;;;;;;;;;7.52;100.00;101579.22;8324016;28;19917;-51
2022/09/21 03:23:46;;;;;;;;;;;;;;;7.58;100.00;101578.84;8324591;28;19924;-49
2022/09/21 03:27:46;;;;;;;;;;;;;;;7.44;100.00;101589.56;8322642;28;19916;-48
2022/09/21 03:31:47;;;;;;;;;;;;;;;7.39;100.00;101583.63;8325181;28;19960;-51
2022/09/21 03:35:47;;;;;;;;;;;;;;;7.43;100.00;101579.78;8324610;28;20382;-51
2022/09/21 03:39:47;;;;;;;;;;;;;;;7.60;100.00;101590.34;8324343;28;19967;-48
2022/09/21 03:43:48;;;;;;;;;;;;;;;7.45;100.00;101585.94;8324401;28;19923;-47
2022/09/21 03:47:48;;;;;;;;;;;;;;;7.23;100.00;101588.19;8324225;28;19917;-47
2022/09/21 03:51:48;;;;;;;;;;;;;;;7.18;100.00;101584.94;8324512;28;20306;-48
2022/09/21 03:55:48;;;;;;;;;;;;;;;7.12;100.00;101590.69;8324343;28;19917;-48
2022/09/21 03:59:49;;;;;;;;;;;;;;;7.05;100.00;101594.69;8324778;28;19920;-47
2022/09/21 04:03:49;;;;;;;;;;;;;;;7.16;100.00;101591.34;8323270;28;20664;-50
2022/09/21 04:07:50;;;;;;;;;;;;;;;7.12;100.00;101588.00;8319656;28;19925;-47
2022/09/21 04:11:52;;;;;;;;;;;;;;;7.11;100.00;101594.31;8315583;28;19982;-48
2022/09/21 04:15:52;;;;;;;;;;;;;;;7.26;100.00;101585.31;8328467;28;20011;-48
2022/09/21 04:19:52;;;;;;;;;;;;;;;7.20;100.00;101599.13;8327953;28;19932;-48
2022/09/21 04:23:53;;;;;;;;;;;;;;;7.23;100.00;101601.63;8330152;28;20165;-47
2022/09/21 04:27:53;;;;;;;;;;;;;;;7.22;100.00;101602.63;8330668;28;19925;-49
2022/09/21 04:31:53;;;;;;;;;;;;;;;7.07;100.00;101598.16;8330636;28;20301;-50
2022/09/21 04:35:54;;;;;;;;;;;;;;;6.93;100.00;101608.00;8330133;28;19928;-48
2022/09/21 04:39:54;;;;;;;;;;;;;;;6.96;100.00;101606.00;8331079;28;19924;-47
2022/09/21 04:43:55;;;;;;;;;;;;;;;7.00;100.00;101602.19;8330411;28;19921;-48
2022/09/21 04:47:55;;;;;;;;;;;;;;;6.96;100.00;101600.63;8329356;28;20011;-50
2022/09/21 04:51:56;;;;;;;;;;;;;;;7.05;100.00;101620.72;8323299;28;19933;-49
2022/09/21 04:55:56;;;;;;;;;;;;;;;7.07;100.00;101608.91;8330439;28;19971;-48
2022/09/21 04:59:56;;;;;;;;;;;;;;;7.07;100.00;101619.66;8327704;28;19925;-48
2022/09/21 05:04:01;;;;;;;;;;;;;;;6.85;100.00;101624.59;8322424;28;19929;-51
2022/09/21 05:08:01;;;;;;;;;;;;;;;6.94;100.00;101624.03;8324872;28;19978;-48
2022/09/21 05:12:01;;;;;;;;;;;;;;;6.82;100.00;101627.44;8323192;28;20437;-48
2022/09/21 05:16:02;;;;;;;;;;;;;;;7.00;100.00;101629.06;8327051;28;20075;-48
2022/09/21 05:20:02;;;;;;;;;;;;;;;6.87;100.00;101632.56;8325009;28;20008;-51
2022/09/21 05:24:03;;;;;;;;;;;;;;;6.85;100.00;101643.41;8325520;28;19928;-47
2022/09/21 05:28:03;;;;;;;;;;;;;;;6.91;100.00;101640.34;8325077;28;19921;-47
2022/09/21 05:32:23;;;;;;;;;;;;;;;7.09;100.00;101650.03;8325853;28;20010;-48
2022/09/21 05:36:44;;;;;;;;;;;;;;;7.00;100.00;101650.56;8305264;28;19978;-48
2022/09/21 05:40:46;;;;;;;;;;;;;;;6.89;100.00;101655.69;8314812;28;20393;-48
2022/09/21 05:44:48;;;;;;;;;;;;;;;7.02;100.00;101654.00;8322709;28;19964;-48
2022/09/21 05:48:55;;;;;;;;;;;;;;;7.17;100.00;101653.09;8317568;28;19947;-48
2022/09/21 05:53:11;;;;;;;;;;;;;;;7.18;100.00;101653.97;8321817;28;19925;-49
2022/09/21 05:57:17;;;;;;;;;;;;;;;7.23;100.00;101668.03;8321291;28;19925;-47
2022/09/21 06:01:37;;;;;;;;;;;;;;;7.44;100.00;101656.00;8310950;28;20227;-47
2022/09/21 06:05:38;;;;;;;;;;;;;;;7.59;100.00;101660.41;8319448;28;19917;-48
2022/09/21 06:09:38;;;;;;;;;;;;;;;7.79;100.00;101662.75;8319733;28;20230;-48
2022/09/21 06:13:40;;;;;;;;;;;;;;;8.07;100.00;101671.72;8327284;28;20302;-49
2022/09/21 06:17:40;;;;;;;;;;;;;;;8.16;100.00;101682.84;8321976;28;19992;-48
2022/09/21 06:21:41;;;;;;;;;;;;;;;8.35;100.00;101683.47;8324207;28;19921;-47
2022/09/21 06:25:41;;;;;;;;;;;;;;;8.62;100.00;101687.06;8320342;28;19948;-49
2022/09/21 06:29:41;;;;;;;;;;;;;;;8.80;100.00;101684.03;8323383;28;20157;-49
2022/09/21 06:33:42;;;;;;;;;;;;;;;8.94;100.00;101678.56;8316568;28;19925;-48
2022/09/21 06:37:42;;;;;;;;;;;;;;;9.18;100.00;101686.88;8320736;28;19943;-48
2022/09/21 06:41:43;;;;;;;;;;;;;;;9.32;100.00;101678.72;8316653;28;19979;-48
2022/09/21 06:45:43;;;;;;;;;;;;;;;9.56;100.00;101677.03;8300036;28;19925;-50
2022/09/21 06:49:43;;;;;;;;;;;;;;;9.69;100.00;101683.31;8314611;28;20359;-48
2022/09/21 06:53:44;;;;;;;;;;;;;;;9.86;100.00;101683.00;8322331;28;19925;-48
2022/09/21 06:57:45;;;;;;;;;;;;;;;10.23;100.00;101678.56;8312899;28;19932;-50
2022/09/21 07:01:45;;;;;;;;;;;;;;;10.53;100.00;101676.34;8313973;28;19921;-48
2022/09/21 07:05:45;;;;;;;;;;;;;;;10.60;100.00;101680.34;8310340;28;19929;-48
2022/09/21 07:09:46;;;;;;;;;;;;;;;10.83;100.00;101685.78;8305381;28;19921;-48
2022/09/21 07:13:46;;;;;;;;;;;;;;;10.72;100.00;101693.84;8317806;28;19965;-48
2022/09/21 07:17:46;;;;;;;;;;;;;;;11.26;100.00;101684.28;8316205;28;19925;-49
2022/09/21 07:21:47;;;;;;;;;;;;;;;11.59;100.00;101692.53;8291893;28;19927;-48
2022/09/21 07:25:49;;;;;;;;;;;;;;;11.79;100.00;101689.19;8319344;28;19952;-48
2022/09/21 07:29:49;;;;;;;;;;;;;;;11.81;100.00;101700.75;8310373;28;19929;-48
2022/09/21 07:33:54;;;;;;;;;;;;;;;11.95;100.00;101693.41;8293278;28;19936;-48
2022/09/21 07:37:58;;;;;;;;;;;;;;;11.98;100.00;101695.88;8321477;28;19917;-49
2022/09/21 07:41:59;;;;;;;;;;;;;;;11.74;100.00;101699.50;8320734;28;19953;-48
2022/09/21 07:46:00;;;;;;;;;;;;;;;12.23;100.00;101698.34;8321867;28;20382;-48
2022/09/21 07:50:01;;;;;;;;;;;;;;;12.24;100.00;101694.66;8318973;28;19925;-48
2022/09/21 07:54:01;;;;;;;;;;;;;;;12.30;99.50;101692.31;8319789;28;20456;-48
2022/09/21 07:59:06;;;;;;;;;;;;;;;12.01;100.00;101687.50;8320325;28;19925;-48
2022/09/21 08:02:22;;;;;;;;;;;;;;;12.19;100.00;101691.44;8314421;28;19926;-50
2022/09/21 08:06:24;;;;;;;;;;;;;;;12.28;100.00;101690.69;8316509;28;19968;-48
2022/09/21 08:10:28;;;;;;;;;;;;;;;12.93;100.00;101688.94;8319505;28;19931;-49
2022/09/21 08:14:28;;;;;;;;;;;;;;;13.18;100.00;101688.63;8321709;28;19921;-48
2022/09/21 08:18:29;;;;;;;;;;;;;;;13.27;98.67;101690.59;8320598;28;19928;-48
2022/09/21 08:22:29;;;;;;;;;;;;;;;13.49;97.84;101704.94;8321184;28;19917;-48
2022/09/21 08:26:29;;;;;;;;;;;;;;;13.70;96.95;101692.19;8316110;28;19928;-48
2022/09/21 08:30:30;;;;;;;;;;;;;;;14.10;97.08;101695.06;8321048;28;19943;-48
2022/09/21 08:34:31;;;;;;;;;;;;;;;14.12;95.30;101703.94;8319857;28;20037;-48
2022/09/21 08:38:32;;;;;;;;;;;;;;;14.32;94.21;101705.81;8320513;28;19917;-48
2022/09/21 08:42:37;;;;;;;;;;;;;;;14.54;91.61;101697.44;8320437;28;19925;-49
2022/09/21 08:46:39;;;;;;;;;;;;;;;14.85;92.62;101693.69;8321431;28;19921;-48
2022/09/21 08:50:43;;;;;;;;;;;;;;;15.03;91.66;101692.00;8304176;28;19937;-48
2022/09/21 08:54:48;;;;;;;;;;;;;;;15.15;89.64;101690.00;8320221;28;20363;-48
2022/09/21 08:58:48;;;;;;;;;;;;;;;15.23;90.56;101693.75;8321827;28;19921;-48
2022/09/21 09:03:02;;;;;;;;;;;;;;;15.40;88.88;101694.97;8325405;28;19925;-51
2022/09/21 09:07:13;;;;;;;;;;;;;;;15.58;90.25;101688.63;8324738;28;20310;-48
2022/09/21 09:11:28;;;;;;;;;;;;;;;15.73;85.27;101695.38;8312281;28;19930;-48
2022/09/21 09:15:37;;;;;;;;;;;;;;;16.30;81.76;101693.50;8299740;28;21135;-49
2022/09/21 09:19:42;;;;;;;;;;;;;;;17.86;75.01;101696.72;8323201;28;19921;-48
2022/09/21 09:23:46;;;;;;;;;;;;;;;19.28;71.63;101687.78;8320605;28;19928;-48
2022/09/21 09:27:49;;;;;;;;;;;;;;;20.68;66.40;101685.47;8319126;28;19955;-48
2022/09/21 09:31:53;;;;;;;;;;;;;;;21.12;62.70;101692.16;8325321;28;19928;-48
2022/09/21 09:35:57;;;;;;;;;;;;;;;22.98;59.34;101693.91;8320164;28;19925;-49
2022/09/21 09:39:58;;;;;;;;;;;;;;;22.77;58.16;101690.22;8319794;28;22425;-48
2022/09/21 09:44:19;;;;;;;;;;;;;;;22.07;59.68;101698.00;8325446;28;19924;-48
2022/09/21 09:48:23;;;;;;;;;;;;;;;22.54;58.73;101693.06;8315988;28;20580;-50
2022/09/21 09:52:24;;;;;;;;;;;;;;;23.15;57.24;101684.34;8321855;28;19933;-48
2022/09/21 09:56:25;;;;;;;;;;;;;;;22.66;57.84;101694.31;8321122;28;19931;-48
2022/09/21 10:00:25;;;;;;;;;;;;;;;23.13;56.15;101680.94;8318341;28;20453;-49
2022/09/21 10:04:25;;;;;;;;;;;;;;;23.27;55.80;101676.47;8320256;28;19968;-48
2022/09/21 10:08:27;;;;;;;;;;;;;;;23.79;54.92;101677.03;8326236;28;20456;-50
2022/09/21 10:12:29;;;;;;;;;;;;;;;24.28;53.01;101671.50;8324210;28;19979;-50
2022/09/21 10:16:29;;;;;;;;;;;;;;;24.26;53.53;101668.06;8302704;28;19955;-49
2022/09/21 10:20:31;;;;;;;;;;;;;;;24.09;52.11;101666.69;8318116;28;19971;-48
2022/09/21 10:24:35;;;;;;;;;;;;;;;23.81;53.13;101665.75;8328598;28;20392;-48
2022/09/21 10:28:35;;;;;;;;;;;;;;;24.22;51.99;101664.00;8315204;28;20004;-49
2022/09/21 10:32:36;;;;;;;;;;;;;;;24.04;53.49;101658.13;8322125;28;20401;-49
2022/09/21 10:36:37;;;;;;;;;;;;;;;24.61;51.86;101653.22;8321928;28;19932;-49
2022/09/21 10:40:38;;;;;;;;;;;;;;;24.98;51.01;101650.03;8321020;28;19921;-49
2022/09/21 10:44:40;;;;;;;;;;;;;;;25.09;50.42;101654.13;8320853;28;19967;-50
2022/09/21 10:48:44;;;;;;;;;;;;;;;25.68;49.07;101655.97;8317796;28;19929;-50
2022/09/21 10:52:45;;;;;;;;;;;;;;;26.54;49.44;101661.31;8323771;28;20310;-52
2022/09/21 10:56:50;;;;;;;;;;;;;;;25.88;48.07;101653.22;8312703;28;19948;-50
2022/09/21 11:00:51;;;;;;;;;;;;;;;25.94;47.20;101650.47;8324536;28;20019;-49
2022/09/21 11:04:55;;;;;;;;;;;;;;;26.30;46.23;101653.69;8316461;28;19924;-49
2022/09/21 11:09:05;;;;;;;;;;;;;;;25.97;48.91;101647.25;8315582;28;19948;-50
2022/09/21 11:13:19;;;;;;;;;;;;;;;26.31;44.18;101647.03;8320669;28;19928;-49
2022/09/21 11:21:56;;;;;;;;;;;;;;;24.40;46.54;101645.84;8318606;27;19995;-51
2022/09/21 11:26:02;;;;;;;;;;;;;;;22.52;49.12;101642.78;8279339;28;20503;-50
2022/09/21 11:30:06;;;;;;;;;;;;;;;20.35;54.25;101650.88;8309886;28;19921;-50
2022/09/21 11:34:26;;;;;;;;;;;;;;;23.58;50.08;101634.75;8315156;28;20419;-50
2022/09/21 11:38:37;;;;;;;;;;;;;;;25.68;44.65;101632.97;8281389;28;19936;-49
2022/09/21 11:42:48;;;;;;;;;;;;;;;24.66;47.58;101623.91;8282093;28;20021;-51
2022/09/21 11:46:57;;;;;;;;;;;;;;;24.69;46.95;101630.94;8280547;28;19922;-51
2022/09/21 11:51:05;;;;;;;;;;;;;;;25.50;46.51;101625.28;8274100;28;20303;-48
2022/09/21 11:55:26;;;;;;;;;;;;;;;25.67;45.30;101621.03;8313055;28;19975;-50
2022/09/21 12:04:02;;;;;;;;;;;;;;;25.43;45.60;101618.84;8375697;27;19925;-49
2022/09/21 12:08:18;;;;;;;;;;;;;;;25.00;46.32;101617.44;8342686;28;20005;-51
2022/09/21 12:12:22;;;;;;;;;;;;;;;24.66;47.13;101609.22;8361130;28;19921;-50
2022/09/21 12:16:32;;;;;;;;;;;;;;;24.93;46.41;101606.38;8348895;28;19921;-49
2022/09/21 12:20:53;;;;;;;;;;;;;;;25.40;45.46;101602.66;8340613;28;20031;-47
2022/09/21 12:24:57;;;;;;;;;;;;;;;25.67;44.48;101593.31;8338365;28;19925;-50
2022/09/21 12:29:09;;;;;;;;;;;;;;;25.05;45.80;101590.00;8340549;28;19947;-48
2022/09/21 12:33:29;;;;;;;;;;;;;;;23.55;48.25;101590.94;8347496;28;19924;-48
2022/09/21 12:37:34;;;;;;;;;;;;;;;23.26;46.88;101580.06;8346274;28;19948;-48
2022/09/21 12:45:53;;;;;;;;;;;;;;;19.79;53.97;101576.84;8320476;27;19971;-48
2022/09/21 12:49:56;;;;;;;;;;;;;;;19.06;56.08;101584.19;8325056;28;19948;-49
2022/09/21 12:53:59;;;;;;;;;;;;;;;18.76;55.97;101566.47;8315635;28;19921;-48
2022/09/21 12:58:07;;;;;;;;;;;;;;;18.67;55.65;101570.22;8308518;28;20288;-48
2022/09/21 13:02:29;;;;;;;;;;;;;;;18.73;55.37;101571.44;8308291;28;20414;-50
2022/09/21 13:06:50;;;;;;;;;;;;;;;18.72;56.94;101565.09;8336540;28;20362;-48
2022/09/21 13:15:26;;;;;;;;;;;;;;;18.44;55.73;101560.91;8381770;27;19921;-50
2022/09/21 13:19:28;;;;;;;;;;;;;;;18.13;55.74;101562.47;8339170;28;20011;-50
2022/09/21 13:23:39;;;;;;;;;;;;;;;18.06;54.54;101558.69;8347244;28;20047;-47
2022/09/21 13:28:00;;;;;;;;;;;;;;;18.10;55.08;101557.31;8375670;28;20008;-48
2022/09/21 13:36:31;;;;;;;;;;;;;;;18.42;53.45;101546.53;8325942;27;19929;-47
2022/09/21 13:40:34;;;;;;;;;;;;;;;18.56;53.62;101543.16;8329173;28;19932;-48
2022/09/21 13:44:37;;;;;;;;;;;;;;;18.88;53.19;101535.00;8339817;28;19932;-48
2022/09/21 13:48:38;;;;;;;;;;;;;;;18.93;53.85;101535.34;8345720;28;20382;-51
2022/09/21 13:52:44;;;;;;;;;;;;;;;18.97;52.68;101531.22;8345016;28;20370;-49
2022/09/21 13:56:44;;;;;;;;;;;;;;;18.90;53.17;101535.69;8346343;28;20484;-52
2022/09/21 14:00:57;;;;;;;;;;;;;;;18.83;54.45;101523.69;8346488;28;19943;-50
2022/09/21 14:05:05;;;;;;;;;;;;;;;18.97;54.91;101519.44;8344487;28;20330;-48
2022/09/21 14:09:18;;;;;;;;;;;;;;;19.15;55.99;101510.00;8338252;28;19979;-49
2022/09/21 14:13:25;;;;;;;;;;;;;;;19.21;53.40;101512.03;8321300;28;19972;-48
2022/09/21 14:17:35;;;;;;;;;;;;;;;19.04;54.56;101510.34;8337188;28;19964;-49
2022/09/21 14:21:36;;;;;;;;;;;;;;;19.14;54.05;101508.28;8338998;28;20302;-47
2022/09/21 14:25:53;;;;;;;;;;;;;;;18.93;55.73;101501.59;8346066;28;20004;-49
2022/09/21 14:29:58;;;;;;;;;;;;;;;18.54;54.15;101498.63;8343692;28;20451;-48
2022/09/21 14:34:01;;;;;;;;;;;;;;;18.53;53.93;101504.28;8344857;28;19971;-49
2022/09/21 14:38:06;;;;;;;;;;;;;;;18.46;53.07;101498.63;8328709;28;20422;-49
2022/09/21 14:42:11;;;;;;;;;;;;;;;18.55;53.81;101497.63;8336202;28;19925;-48
2022/09/21 14:46:31;;;;;;;;;;;;;;;18.46;52.97;101492.28;8312958;28;20648;-51
2022/09/21 14:50:51;;;;;;;;;;;;;;;18.74;54.74;101485.47;8293947;28;19921;-48
2022/09/21 14:55:08;;;;;;;;;;;;;;;18.74;53.19;101489.09;8322692;28;19921;-48
2022/09/21 14:59:14;;;;;;;;;;;;;;;18.68;53.56;101476.06;8317964;28;20375;-48
2022/09/21 15:03:37;;;;;;;;;;;;;;;18.57;52.14;101470.06;8321253;28;20050;-48
2022/09/21 15:12:26;;;;;;;;;;;;;;;18.46;53.14;101460.28;8312723;28;20375;-49
2022/09/21 15:16:44;;;;;;;;;;;;;;;18.32;52.75;101463.63;8317100;28;19929;-48
2022/09/21 15:20:53;;;;;;;;;;;;;;;18.35;53.87;101456.94;8297761;28;20121;-48
2022/09/21 15:24:55;;;;;;;;;;;;;;;18.38;52.76;101456.66;8292474;28;19960;-48
2022/09/21 15:28:57;;;;;;;;;;;;;;;18.41;52.90;101451.72;8305383;28;19932;-49
2022/09/21 15:32:59;;;;;;;;;;;;;;;18.26;51.30;101453.34;8320090;28;19935;-48
2022/09/21 15:37:16;;;;;;;;;;;;;;;18.28;52.60;101450.44;8302756;28;19929;-49
2022/09/21 15:41:38;;;;;;;;;;;;;;;18.30;51.71;101449.25;8316274;28;19987;-49
2022/09/21 15:45:59;;;;;;;;;;;;;;;18.29;52.56;101453.00;8320907;28;19956;-48
2022/09/21 15:49:59;;;;;;;;;;;;;;;18.29;51.34;101446.66;8289710;28;19979;-48
2022/09/21 15:54:05;;;;;;;;;;;;;;;18.27;50.52;101452.31;8286368;28;20431;-48
2022/09/21 15:58:14;;;;;;;;;;;;;;;18.21;49.36;101447.50;8292432;28;20292;-49
2022/09/21 16:02:18;;;;;;;;;;;;;;;18.18;49.99;101444.28;8311999;28;19917;-48
2022/09/21 16:06:27;;;;;;;;;;;;;;;18.15;50.79;101442.72;8319321;28;19924;-50
2022/09/21 16:10:31;;;;;;;;;;;;;;;18.14;49.03;101448.38;8318844;28;19947;-49
2022/09/21 16:15:02;;;;;;;;;;;;;;;18.11;48.77;101440.50;8320485;28;19927;-50
2022/09/21 16:18:54;;;;;;;;;;;;;;;18.06;49.23;101442.84;8304080;28;19996;-48
2022/09/21 16:23:02;;;;;;;;;;;;;;;18.01;49.28;101443.34;8310970;28;19921;-48
2022/09/21 16:27:03;;;;;;;;;;;;;;;17.91;56.14;101448.13;8301110;28;19926;-48
2022/09/21 16:31:21;;;;;;;;;;;;;;;17.85;58.30;101446.03;8316783;28;19921;-48
2022/09/21 16:35:26;;;;;;;;;;;;;;;17.63;59.57;101444.72;8314496;28;19929;-48
2022/09/21 16:39:27;;;;;;;;;;;;;;;17.53;61.02;101444.00;8317735;28;19925;-48
2022/09/21 16:43:28;;;;;;;;;;;;;;;17.44;59.88;101449.56;8314838;28;19925;-50
2022/09/21 16:47:29;;;;;;;;;;;;;;;17.39;60.64;101449.19;8310962;28;19956;-51
2022/09/21 16:51:29;;;;;;;;;;;;;;;17.35;60.56;101448.63;8292938;28;19925;-48
2022/09/21 16:58:00;;;;;;;2.92;0.80;;;;;;;17.18;61.18;101454.16;8281776;27;20416;-49
2022/09/21 17:02:03;;;;;;;5.55;1.35;;;;;;;17.04;62.25;101452.00;8339687;28;20038;-49
2022/09/21 17:06:10;;;;;;;2.28;0.80;;;;;;;16.96;61.98;101457.44;8336122;28;20044;-49
2022/09/21 17:10:15;;;;;;;1.85;0.85;;;;;;;16.81;62.50;101456.28;8337072;28;20029;-50
2022/09/21 17:14:16;;;;;;;2.58;0.75;;;;;;;16.68;63.53;101455.81;8339421;28;20574;-49
2022/09/21 17:18:16;;;;;;;3.30;0.65;;;;;;;16.54;64.86;101453.63;8339950;28;20044;-49
2022/09/21 17:22:18;;;;;;;2.50;1.00;;;;;;;16.31;67.60;101452.34;8340199;28;20045;-49
2022/09/21 17:26:20;;;;;;;3.78;1.10;;;;;;;15.92;70.78;101457.16;8320444;28;20044;-49
2022/09/21 17:30:20;;;;;;;4.07;0.95;;;;;;;15.56;72.40;101466.25;8317635;28;20053;-49
2022/09/21 17:34:25;;;;;;;10.27;1.10;;;;;;;14.95;76.77;101459.50;8314670;28;20030;-50
2022/09/21 17:38:25;;;;;;;3.25;1.02;;;;;;;14.48;80.38;101463.09;8314993;28;20041;-49
2022/09/21 17:42:27;;;;;;;3.28;0.88;;;;;;;14.33;81.13;101457.22;8334607;28;87930;-49
2022/09/21 17:46:44;;;;;;;8.10;0.90;;;;;;;13.94;82.99;101451.84;8281119;28;20053;-49
2022/09/21 17:50:45;;;;;;;2.50;1.10;;;;;;;13.73;86.02;101457.34;8271494;28;20092;-49
2022/09/21 17:54:46;;;;;;;3.78;1.20;;;;;;;13.56;88.29;101455.28;8274883;28;20097;-50
2022/09/21 17:59:10;;;;;;;3.63;1.50;;;;;;;13.55;87.30;101454.41;8273053;28;20088;-50
2022/09/21 18:03:20;;;;;;;6.15;1.38;;;;;;;13.58;86.46;101459.56;8303546;28;20041;-49
2022/09/21 18:07:22;;;;;;;4.63;1.42;;;;;;;13.42;85.84;101463.81;8293687;28;20038;-49
2022/09/21 18:24:37;;;;;;;5.85;1.80;;;;;;;13.05;90.41;101479.72;8399984;27;20388;-48
2022/09/21 18:28:42;;;;;;;6.85;1.70;;;;;;;13.30;87.85;101486.63;8376896;28;20040;-47
2022/09/21 18:32:56;;;;;;;3.30;1.58;;;;;;;12.85;91.23;101479.69;8367984;28;20094;-48
2022/09/21 18:37:26;;;;;;;3.67;1.30;;;;;;;12.65;93.16;101492.25;8379020;28;20055;-48
2022/09/21 18:41:35;;;;;;;6.20;1.55;;;;;;;12.35;96.51;101480.44;8378342;28;20045;-47
2022/09/21 18:45:44;;;;;;;8.63;1.60;;;;;;;12.43;94.88;101483.34;8377375;28;20044;-47
2022/09/21 18:50:08;;;;;;;4.53;1.65;;;;;;;12.35;94.84;101485.84;8369453;28;20093;-48
2022/09/21 18:54:16;;;;;;;;;;;;;;;12.80;91.13;101487.38;8382628;28;20431;-50
2022/09/21 18:58:17;;;;;;;4.80;1.42;;;;;;;12.92;90.09;101483.59;8379475;28;19917;-49
2022/09/21 19:02:18;;;;;;;6.15;1.55;;;;;;;12.79;90.14;101478.38;8383129;28;20068;-47
2022/09/21 19:06:48;;;;;;;4.55;1.80;;;;;;;12.53;91.51;101484.31;8383430;28;20116;-51
2022/09/21 19:11:00;;;;;;;5.78;2.08;;;;;;;12.15;95.36;101490.22;8379189;28;20040;-47
2022/09/21 19:15:24;;;;;;;3.28;1.77;;;;;;;11.88;95.95;101490.66;8373458;28;20123;-47
2022/09/21 19:20:04;;;;;;;7.60;2.40;;;;;;;11.58;99.11;101490.38;8375385;28;20421;-47
2022/09/21 19:24:13;;;;;;;4.78;2.20;;;;;;;11.56;98.88;101486.94;8372578;28;20567;-47
2022/09/21 19:28:52;;;;;;;9.52;2.40;;;;;;;11.42;100.00;101491.72;8368179;28;20402;-49
2022/09/21 19:32:59;;;;;;;5.72;1.98;;;;;;;11.46;99.04;101482.38;8373494;28;20055;-48
2022/09/21 19:37:00;;;;;;;4.35;2.33;;;;;;;11.24;99.23;101485.94;8310160;28;20045;-47
2022/09/21 19:41:24;;;;;;;3.25;1.65;;;;;;;11.14;100.00;101495.78;8322105;28;20052;-50
2022/09/21 19:45:49;;;;;;;9.10;2.23;;;;;;;10.88;100.00;101487.94;8353325;28;20529;-48
2022/09/21 19:49:53;;;;;;;6.32;2.60;;;;;;;10.79;100.00;101488.63;8353483;28;20630;-49
2022/09/21 19:59:49;;;;;;;11.65;2.47;;;;;;;10.99;100.00;101494.25;8350977;28;20250;-49
2022/09/21 20:02:51;;;;;;;6.20;2.13;;;;;;;10.72;100.00;101487.41;8354993;28;20107;-48
2022/09/21 20:06:58;;;;;;;5.95;2.05;;;;;;;10.54;100.00;101495.09;8354854;28;20517;-48
2022/09/21 20:11:10;;;;;;;5.50;2.38;;;;;;;10.57;100.00;101494.84;8354275;28;20037;-48
2022/09/21 20:15:16;;;;;;;3.42;1.67;;;;;;;10.55;100.00;101491.38;8355281;28;20056;-47
2022/09/21 20:23:38;;;;;;;3.33;1.65;;;;;;;10.53;100.00;101493.38;8392103;27;20044;-47
2022/09/21 20:27:43;;;;;;;4.60;1.67;;;;;;;10.88;100.00;101494.22;8386539;28;20035;-47
2022/09/21 20:31:46;;;;;;;8.98;2.58;;;;;;;10.58;100.00;101501.97;8387066;28;20036;-47
2022/09/21 20:35:48;;;;;;;4.13;2.65;;;;;;;10.41;100.00;101498.81;8381207;28;20036;-49
2022/09/21 20:39:49;;;;;;;10.05;3.80;;;;;;;10.39;100.00;101489.97;8378550;28;20502;-50
2022/09/21 20:43:50;;;;;;;14.23;6.95;;;;;;;10.38;100.00;101488.25;8379235;28;20457;-51
2022/09/21 20:47:51;;;;;;;18.10;6.60;;;;;;;10.36;100.00;101487.50;8375258;28;20120;-47
2022/09/21 20:51:52;;;;;;;12.23;5.22;;;;;;;10.46;100.00;101497.50;8379396;28;20051;-47
2022/09/21 20:55:54;;;;;;;9.77;4.38;;;;;;;10.71;100.00;101500.09;8358666;28;20045;-47
2022/09/21 20:59:56;;;;;;;6.97;4.38;;;;;;;10.48;100.00;101491.97;8350205;28;20029;-48
2022/09/21 21:04:01;;;;;;;8.68;3.92;;;;;;;10.33;100.00;101485.88;8345645;28;20568;-49
2022/09/21 21:08:03;;;;;;;9.38;4.10;;;;;;;10.39;100.00;101479.16;8378462;28;20033;-48
2022/09/21 21:12:04;;;;;;;10.00;3.67;;;;;;;10.03;100.00;101490.84;8378981;28;20032;-47
2022/09/21 21:16:05;;;;;;;6.75;3.22;;;;;;;9.86;100.00;101483.13;8377187;28;20036;-49
2022/09/21 21:20:07;;;;;;;5.03;3.65;;;;;;;9.94;100.00;101478.00;8375794;28;20561;-47
2022/09/21 21:24:39;;;;;;;5.20;3.30;;;;;;;9.87;100.00;101480.31;8352443;28;20106;-47
2022/09/21 21:28:28;;;;;;;12.60;4.30;;;;;;;10.06;100.00;101487.91;8353426;28;20064;-49